Time;durP1;ratioP1;P1;durP2;ratioP2;P2;SDS_P1;SDS_P2;PMS_P1;PMS_P2;Temp;Humidity;BMP_temperature;BMP_pressure;BME280_temperature;BME280_humidity;BME280_pressure;Samples;Min_cycle;Max_cycle;Signal;HPM_P1;HPM_P2
2023/01/21 00:00:35;;;;;;;21.70;10.50;;;;;-0.80;96450.00;;;;8264266;28;20210;-71
2023/01/21 00:04:43;;;;;;;22.57;10.77;;;;;-0.80;96453.00;;;;8267298;28;20695;-71
2023/01/21 00:08:46;;;;;;;25.83;11.27;;;;;-0.80;96455.00;;;;8265558;28;20652;-71
2023/01/21 00:12:50;;;;;;;18.67;8.73;;;;;-0.80;96464.00;;;;8272661;28;20656;-71
2023/01/21 00:16:54;;;;;;;26.90;9.93;;;;;-0.70;96459.00;;;;8272191;28;20234;-71
2023/01/21 00:25:19;;;;;;;28.73;11.27;;;;;-0.70;96458.00;;;;8271067;28;20191;-71
2023/01/21 00:29:29;;;;;;;22.57;10.23;;;;;-0.70;96459.00;;;;8272096;28;20199;-71
2023/01/21 00:33:34;;;;;;;23.00;10.17;;;;;-0.70;96467.00;;;;8270988;28;20301;-71
2023/01/21 00:37:41;;;;;;;25.90;9.60;;;;;-0.70;96470.00;;;;8270295;28;20203;-71
2023/01/21 00:41:46;;;;;;;25.83;10.10;;;;;-0.70;96470.00;;;;8271292;28;20772;-71
2023/01/21 00:45:50;;;;;;;20.87;9.70;;;;;-0.80;96467.00;;;;8271751;28;20194;-71
2023/01/21 00:49:53;;;;;;;23.47;10.70;;;;;-0.80;96477.00;;;;8271283;28;20536;-71
2023/01/21 00:54:03;;;;;;;17.97;7.90;;;;;-0.80;96484.00;;;;8272116;28;20195;-70
2023/01/21 00:58:06;;;;;;;27.63;11.20;;;;;-0.80;96470.00;;;;8270017;28;20287;-71
2023/01/21 01:02:13;;;;;;;26.27;11.00;;;;;-0.80;96470.00;;;;8270893;28;20229;-71
2023/01/21 01:06:18;;;;;;;26.40;11.87;;;;;-0.80;96468.00;;;;8270999;28;20626;-71
2023/01/21 01:10:23;;;;;;;21.63;10.17;;;;;-0.90;96476.00;;;;8270028;28;20227;-71
2023/01/21 01:14:32;;;;;;;28.53;10.83;;;;;-0.80;96473.00;;;;8269492;28;20203;-71
2023/01/21 01:18:42;;;;;;;24.93;10.77;;;;;-0.80;96472.00;;;;8269615;28;20203;-71
2023/01/21 01:22:50;;;;;;;20.60;10.10;;;;;-0.80;96478.00;;;;8252814;28;20629;-71
2023/01/21 01:27:01;;;;;;;21.30;9.60;;;;;-0.80;96483.00;;;;8270361;28;20285;-71
2023/01/21 01:31:06;;;;;;;23.63;9.50;;;;;-0.80;96483.00;;;;8267314;28;20233;-71
2023/01/21 01:35:13;;;;;;;19.37;7.83;;;;;-0.80;96490.00;;;;8269053;28;20186;-71
2023/01/21 01:39:19;;;;;;;23.73;9.37;;;;;-0.70;96490.00;;;;8269211;28;20195;-71
2023/01/21 01:43:26;;;;;;;23.43;10.67;;;;;-0.70;96490.00;;;;8251537;28;20199;-71
2023/01/21 01:47:37;;;;;;;27.60;10.33;;;;;-0.70;96492.00;;;;8270348;28;20599;-71
2023/01/21 01:51:47;;;;;;;19.13;8.53;;;;;-0.70;96493.00;;;;8268217;28;20230;-71
2023/01/21 01:55:53;;;;;;;21.90;10.77;;;;;-0.70;96489.00;;;;8269038;28;20191;-71
2023/01/21 02:00:00;;;;;;;26.20;10.77;;;;;-0.70;96493.00;;;;8268130;28;20202;-71
2023/01/21 02:04:08;;;;;;;27.07;11.03;;;;;-0.70;96494.00;;;;8267945;28;20226;-71
2023/01/21 02:08:12;;;;;;;25.47;10.30;;;;;-0.70;96504.00;;;;8267884;28;20248;-70
2023/01/21 02:12:16;;;;;;;25.17;10.43;;;;;-0.70;96497.00;;;;8268393;28;20226;-71
2023/01/21 02:16:50;;;;;;;27.70;10.53;;;;;-0.70;96497.00;;;;8268624;28;20202;-70
2023/01/21 02:21:43;;;;;;;31.60;12.10;;;;;-0.70;96502.00;;;;8262356;28;20205;-70
2023/01/21 02:26:15;;;;;;;19.43;10.17;;;;;-0.80;96502.00;;;;8267745;28;20234;-71
2023/01/21 02:30:51;;;;;;;28.07;12.63;;;;;-0.80;96504.00;;;;8269299;28;20195;-70
2023/01/21 02:35:01;;;;;;;23.40;10.80;;;;;-0.80;96512.00;;;;8241528;28;20199;-70
2023/01/21 02:39:12;;;;;;;29.73;11.67;;;;;-0.80;96506.00;;;;8266813;28;20195;-70
2023/01/21 02:43:26;;;;;;;22.70;9.53;;;;;-0.80;96505.00;;;;8267569;28;20588;-70
2023/01/21 02:47:37;;;;;;;24.90;11.93;;;;;-0.80;96508.00;;;;8267001;28;20191;-70
2023/01/21 02:51:48;;;;;;;21.53;9.17;;;;;-0.80;96520.00;;;;8265732;28;20219;-70
2023/01/21 02:55:52;;;;;;;31.47;12.70;;;;;-0.90;96518.00;;;;8267926;28;20191;-70
2023/01/21 02:59:58;;;;;;;23.10;10.27;;;;;-0.90;96516.00;;;;8266456;28;20241;-71
2023/01/21 03:04:31;;;;;;;28.60;11.67;;;;;-0.80;96518.00;;;;8319849;23;20256;-71
2023/01/21 03:08:44;;;;;;;28.80;12.40;;;;;-0.80;96523.00;;;;8302334;28;20272;-71
2023/01/21 03:12:59;;;;;;;24.50;10.97;;;;;-0.90;96513.00;;;;8306709;28;20308;-72
2023/01/21 03:17:07;;;;;;;26.70;11.57;;;;;-0.90;96504.00;;;;8305795;28;20239;-71
2023/01/21 03:21:15;;;;;;;27.40;11.50;;;;;-0.90;96508.00;;;;8299050;28;20206;-71
2023/01/21 03:25:20;;;;;;;28.37;10.43;;;;;-0.90;96510.00;;;;8316028;28;20206;-71
2023/01/21 03:29:29;;;;;;;29.03;11.20;;;;;-0.90;96501.00;;;;8303747;28;20264;-70
2023/01/21 03:33:45;;;;;;;27.47;11.80;;;;;-0.80;96502.00;;;;8302824;28;20229;-72
2023/01/21 03:37:57;;;;;;;22.23;10.73;;;;;-0.80;96496.00;;;;8305245;28;20289;-70
2023/01/21 03:42:04;;;;;;;24.47;10.87;;;;;-0.80;96500.00;;;;8309466;28;20202;-70
2023/01/21 03:46:12;;;;;;;22.83;10.27;;;;;-0.90;96486.00;;;;8313463;28;20225;-72
2023/01/21 03:50:19;;;;;;;23.03;10.30;;;;;-0.80;96483.00;;;;8303208;28;20207;-70
2023/01/21 03:54:25;;;;;;;29.57;12.50;;;;;-0.80;96490.00;;;;8302721;28;20222;-70
2023/01/21 03:58:34;;;;;;;32.50;12.23;;;;;-0.80;96477.00;;;;8316106;28;20200;-72
2023/01/21 04:02:38;;;;;;;26.77;12.57;;;;;-0.80;96484.00;;;;8302305;28;20268;-69
2023/01/21 04:06:41;;;;;;;29.73;11.57;;;;;-0.70;96483.00;;;;8290662;28;20260;-70
2023/01/21 04:10:47;;;;;;;21.33;9.03;;;;;-0.70;96473.00;;;;8283452;28;20257;-70
2023/01/21 04:14:57;;;;;;;23.13;10.73;;;;;-0.70;96478.00;;;;8288732;28;20274;-70
2023/01/21 04:19:00;;;;;;;25.97;9.80;;;;;-0.70;96475.00;;;;8283525;28;20202;-70
2023/01/21 04:23:03;;;;;;;26.07;11.30;;;;;-0.60;96483.00;;;;8291291;28;20202;-70
2023/01/21 04:27:09;;;;;;;20.83;9.50;;;;;-0.60;96497.00;;;;8279400;28;20602;-71
2023/01/21 04:31:18;;;;;;;23.93;10.90;;;;;-0.60;96484.00;;;;8287549;28;20203;-71
2023/01/21 04:35:24;;;;;;;26.80;11.00;;;;;-0.60;96495.00;;;;8288606;28;20210;-72
2023/01/21 04:39:35;;;;;;;29.60;11.80;;;;;-0.60;96495.00;;;;8284168;28;20198;-70
2023/01/21 04:43:42;;;;;;;23.93;9.87;;;;;-0.60;96492.00;;;;8276617;28;21000;-72
2023/01/21 04:47:47;;;;;;;32.87;11.60;;;;;-0.60;96506.00;;;;8290634;28;20207;-70
2023/01/21 04:51:52;;;;;;;29.07;11.70;;;;;-0.60;96500.00;;;;8295777;28;20312;-72
2023/01/21 04:55:58;;;;;;;28.37;11.63;;;;;-0.60;96506.00;;;;8289838;28;20208;-71
2023/01/21 05:00:05;;;;;;;33.27;12.40;;;;;-0.60;96506.00;;;;8278765;28;20206;-70
2023/01/21 05:04:10;;;;;;;27.80;10.73;;;;;-0.70;96489.00;;;;8284984;28;20801;-70
2023/01/21 05:08:14;;;;;;;25.40;10.63;;;;;-0.70;96505.00;;;;8276110;28;20805;-71
2023/01/21 05:12:18;;;;;;;26.63;11.67;;;;;-0.70;96496.00;;;;8289712;28;20226;-71
2023/01/21 05:16:24;;;;;;;26.67;12.53;;;;;-0.70;96504.00;;;;8288845;28;20209;-71
2023/01/21 05:20:30;;;;;;;24.57;12.20;;;;;-0.70;96513.00;;;;8288571;28;20675;-71
2023/01/21 05:24:39;;;;;;;31.97;11.87;;;;;-0.80;96502.00;;;;8290228;28;20241;-71
2023/01/21 05:28:46;;;;;;;32.07;13.57;;;;;-0.70;96501.00;;;;8287892;28;20199;-70
2023/01/21 05:32:52;;;;;;;34.90;13.13;;;;;-0.70;96502.00;;;;8286393;28;20314;-71
2023/01/21 05:36:57;;;;;;;29.33;12.00;;;;;-0.80;96496.00;;;;8288352;28;20715;-71
2023/01/21 05:41:03;;;;;;;31.37;12.80;;;;;-0.80;96508.00;;;;8287345;28;20237;-71
2023/01/21 05:45:09;;;;;;;27.07;10.87;;;;;-0.70;96504.00;;;;8278208;28;20202;-71
2023/01/21 05:49:18;;;;;;;26.30;11.63;;;;;-0.70;96502.00;;;;8287485;28;20289;-71
2023/01/21 05:53:32;;;;;;;34.37;13.40;;;;;-0.70;96497.00;;;;8284192;28;20233;-72
2023/01/21 05:57:36;;;;;;;36.40;12.90;;;;;-0.70;96494.00;;;;8286712;28;20579;-70
2023/01/21 06:01:52;;;;;;;30.53;11.43;;;;;-0.70;96504.00;;;;8283580;28;20250;-71
2023/01/21 06:05:58;;;;;;;27.23;10.93;;;;;-0.70;96500.00;;;;8286357;28;20233;-71
2023/01/21 06:10:05;;;;;;;28.40;10.83;;;;;-0.70;96500.00;;;;8283472;28;20203;-71
2023/01/21 06:14:09;;;;;;;36.00;13.07;;;;;-0.60;96498.00;;;;8266723;28;20497;-71
2023/01/21 06:18:15;;;;;;;32.47;13.07;;;;;-0.60;96500.00;;;;8268728;28;20202;-71
2023/01/21 06:22:19;;;;;;;34.53;12.50;;;;;-0.60;96509.00;;;;8279551;28;20249;-74
2023/01/21 06:26:25;;;;;;;23.30;9.60;;;;;-0.50;96505.00;;;;8285897;28;20190;-72
2023/01/21 06:30:30;;;;;;;21.63;9.83;;;;;-0.60;96508.00;;;;8285019;28;20194;-71
2023/01/21 06:34:37;;;;;;;37.07;11.57;;;;;-0.60;96516.00;;;;8284179;28;20222;-72
2023/01/21 06:38:41;;;;;;;30.73;12.53;;;;;-0.60;96523.00;;;;8285530;28;20733;-74
2023/01/21 06:42:54;;;;;;;31.67;13.67;;;;;-0.60;96519.00;;;;8286603;28;20257;-73
2023/01/21 06:46:58;;;;;;;31.50;12.10;;;;;-0.60;96517.00;;;;8275745;28;21124;-75
2023/01/21 06:51:04;;;;;;;31.50;12.77;;;;;-0.60;96527.00;;;;8278368;28;20205;-70
2023/01/21 06:55:07;;;;;;;35.70;12.50;;;;;-0.60;96527.00;;;;8279633;28;20259;-69
2023/01/21 06:59:12;;;;;;;32.40;12.60;;;;;-0.50;96527.00;;;;8281749;28;20260;-71
2023/01/21 07:03:18;;;;;;;35.30;11.20;;;;;-0.50;96537.00;;;;8268196;28;20222;-70
2023/01/21 07:07:24;;;;;;;27.17;10.83;;;;;-0.40;96538.00;;;;8264231;28;20207;-71
2023/01/21 07:11:28;;;;;;;26.57;11.03;;;;;-0.40;96529.00;;;;8262449;28;20650;-74
2023/01/21 07:15:38;;;;;;;32.10;12.53;;;;;-0.40;96535.00;;;;8268713;28;20229;-73
2023/01/21 07:19:41;;;;;;;32.63;12.67;;;;;-0.30;96534.00;;;;8265597;28;20198;-75
2023/01/21 07:23:48;;;;;;;33.43;13.00;;;;;-0.30;96542.00;;;;8276517;28;20237;-72
2023/01/21 07:27:53;;;;;;;28.43;11.30;;;;;-0.20;96541.00;;;;8279740;28;20267;-75
2023/01/21 07:31:58;;;;;;;27.47;10.90;;;;;-0.10;96547.00;;;;8287772;28;20855;-73
2023/01/21 07:36:02;;;;;;;32.10;11.30;;;;;-0.10;96556.00;;;;8279305;28;20222;-73
2023/01/21 07:40:10;;;;;;;36.67;13.23;;;;;0.00;96560.00;;;;8274352;28;20198;-74
2023/01/21 07:44:14;;;;;;;37.97;12.50;;;;;0.00;96559.00;;;;8264786;28;20214;-74
2023/01/21 07:48:20;;;;;;;34.23;13.13;;;;;0.10;96554.00;;;;8279868;28;20198;-75
2023/01/21 07:52:28;;;;;;;25.90;10.73;;;;;0.10;96563.00;;;;8284487;28;20288;-77
2023/01/21 07:56:35;;;;;;;24.87;11.60;;;;;0.20;96563.00;;;;8271074;28;20230;-74
2023/01/21 08:00:41;;;;;;;40.63;12.93;;;;;0.20;96570.00;;;;8268673;28;20233;-72
2023/01/21 08:04:46;;;;;;;27.57;11.30;;;;;0.30;96572.00;;;;8272966;28;20264;-74
2023/01/21 08:08:52;;;;;;;34.17;13.43;;;;;0.40;96559.00;;;;8261270;28;20264;-74
2023/01/21 08:13:00;;;;;;;31.90;13.13;;;;;0.30;96562.00;;;;8317031;23;20236;-79
2023/01/21 08:17:04;;;;;;;22.80;9.97;;;;;0.40;96572.00;;;;8332532;28;20214;-74
2023/01/21 08:21:08;;;;;;;33.63;12.80;;;;;0.40;96573.00;;;;8338909;28;20821;-72
2023/01/21 08:25:12;;;;;;;33.33;12.53;;;;;0.40;96578.00;;;;8341697;28;20208;-72
2023/01/21 08:29:15;;;;;;;21.17;8.80;;;;;0.50;96586.00;;;;8345129;28;20875;-73
2023/01/21 08:33:19;;;;;;;30.40;12.10;;;;;0.50;96587.00;;;;8343549;28;20235;-71
2023/01/21 08:37:25;;;;;;;30.63;12.77;;;;;0.60;96587.00;;;;8351950;28;20197;-72
2023/01/21 08:41:33;;;;;;;34.13;12.07;;;;;0.50;96592.00;;;;8338164;28;20199;-71
2023/01/21 08:45:38;;;;;;;24.33;7.83;;;;;0.50;96586.00;;;;8347628;28;20596;-70
2023/01/21 08:49:44;;;;;;;34.57;11.73;;;;;0.60;96589.00;;;;8338280;28;20213;-74
2023/01/21 08:53:50;;;;;;;28.50;11.10;;;;;0.70;96583.00;;;;8340822;28;20221;-76
2023/01/21 08:57:57;;;;;;;27.20;11.30;;;;;0.80;96596.00;;;;8342839;28;20225;-70
2023/01/21 09:02:07;;;;;;;26.47;10.50;;;;;0.90;96597.00;;;;8340663;28;20368;-70
2023/01/21 09:06:11;;;;;;;21.80;9.43;;;;;1.00;96605.00;;;;8339527;28;20208;-71
2023/01/21 09:10:59;;;;;;;28.23;11.07;;;;;0.90;96598.00;;;;8342886;28;20797;-68
2023/01/21 09:14:50;;;;;;;24.83;10.17;;;;;1.00;96610.00;;;;8342463;28;20666;-71
2023/01/21 09:18:55;;;;;;;22.43;9.43;;;;;1.10;96610.00;;;;8338282;28;20276;-71
2023/01/21 09:23:00;;;;;;;25.93;10.17;;;;;1.20;96609.00;;;;8336170;28;20240;-71
2023/01/21 09:27:07;;;;;;;17.40;7.10;;;;;1.20;96604.00;;;;8334102;28;20798;-72
2023/01/21 09:31:13;;;;;;;22.83;8.97;;;;;1.20;96608.00;;;;8339810;28;20733;-72
2023/01/21 09:35:20;;;;;;;20.37;8.73;;;;;1.20;96607.00;;;;8344263;28;20233;-73
2023/01/21 09:39:28;;;;;;;25.43;9.70;;;;;1.20;96618.00;;;;8333890;28;20212;-71
2023/01/21 09:43:44;;;;;;;20.53;9.17;;;;;1.20;96618.00;;;;8348477;28;20266;-70
2023/01/21 09:47:55;;;;;;;23.60;10.33;;;;;1.20;96614.00;;;;8344917;28;20201;-71
2023/01/21 09:52:06;;;;;;;24.20;9.80;;;;;1.30;96618.00;;;;8337751;28;20209;-73
2023/01/21 09:56:18;;;;;;;17.37;7.60;;;;;1.30;96622.00;;;;8345069;28;20687;-72
2023/01/21 10:00:37;;;;;;;24.53;9.77;;;;;1.40;96618.00;;;;8335729;28;20797;-74
2023/01/21 10:04:48;;;;;;;16.30;7.80;;;;;1.50;96618.00;;;;8338109;28;20199;-74
2023/01/21 10:09:22;;;;;;;13.97;6.23;;;;;1.60;96617.00;;;;8343354;28;20884;-76
2023/01/21 10:13:36;;;;;;;20.47;8.60;;;;;1.60;96616.00;;;;8323681;28;20228;-72
2023/01/21 10:17:52;;;;;;;11.63;6.07;;;;;1.60;96608.00;;;;8337528;28;20647;-73
2023/01/21 10:22:00;;;;;;;17.07;6.80;;;;;1.70;96617.00;;;;8338255;28;20877;-73
2023/01/21 10:26:10;;;;;;;22.60;9.70;;;;;1.70;96610.00;;;;8347589;28;20203;-71
2023/01/21 10:30:27;;;;;;;17.23;6.87;;;;;1.70;96613.00;;;;8340822;28;20255;-72
2023/01/21 10:34:38;;;;;;;18.13;8.00;;;;;1.70;96615.00;;;;8331346;28;20720;-73
2023/01/21 10:38:54;;;;;;;17.87;7.67;;;;;1.70;96614.00;;;;8346107;28;20202;-72
2023/01/21 10:43:04;;;;;;;15.47;6.77;;;;;1.80;96613.00;;;;8345902;28;20202;-70
2023/01/21 10:47:19;;;;;;;16.83;8.07;;;;;1.90;96600.00;;;;8326727;28;20195;-70
2023/01/21 10:51:30;;;;;;;14.80;7.67;;;;;1.90;96609.00;;;;8357799;22;20235;-78
2023/01/21 10:55:46;;;;;;;14.73;6.53;;;;;1.80;96612.00;;;;8301046;28;20264;-76
2023/01/21 10:59:51;;;;;;;16.87;8.23;;;;;1.80;96589.00;;;;8309005;28;20711;-77
2023/01/21 11:03:57;;;;;;;20.63;8.53;;;;;1.80;96591.00;;;;8307184;28;20264;-76
2023/01/21 11:08:03;;;;;;;18.23;8.93;;;;;1.90;96582.00;;;;8300834;28;20747;-75
2023/01/21 11:12:09;;;;;;;15.17;8.23;;;;;1.90;96591.00;;;;8312762;28;20566;-75
2023/01/21 11:16:12;;;;;;;14.13;5.70;;;;;1.90;96585.00;;;;8314583;28;20288;-75
2023/01/21 11:20:26;;;;;;;7.90;4.83;;;;;1.90;96574.00;;;;8304117;28;20205;-77
2023/01/21 11:24:43;;;;;;;10.90;6.20;;;;;1.90;96579.00;;;;8299391;28;20895;-76
2023/01/21 11:28:47;;;;;;;9.67;4.63;;;;;1.90;96578.00;;;;8310506;28;20244;-75
2023/01/21 11:32:53;;;;;;;8.57;4.67;;;;;1.80;96579.00;;;;8304760;28;20215;-79
2023/01/21 11:37:02;;;;;;;13.00;5.57;;;;;1.90;96583.00;;;;8315524;28;20231;-75
2023/01/21 11:41:24;;;;;;;7.50;4.73;;;;;1.90;96571.00;;;;8304027;28;20296;-78
2023/01/21 11:45:31;;;;;;;8.70;5.50;;;;;2.00;96577.00;;;;8305883;28;20199;-76
2023/01/21 11:49:46;;;;;;;11.63;5.77;;;;;2.00;96568.00;;;;8311004;28;20236;-77
2023/01/21 11:54:07;;;;;;;11.53;5.73;;;;;2.00;96561.00;;;;8274541;28;20266;-79
2023/01/21 11:58:21;;;;;;;9.40;5.43;;;;;2.10;96557.00;;;;8277625;28;20210;-76
2023/01/21 12:02:29;;;;;;;8.80;5.10;;;;;2.00;96563.00;;;;8272481;28;20614;-77
2023/01/21 12:06:34;;;;;;;8.00;4.27;;;;;2.00;96555.00;;;;8277259;28;20216;-77
2023/01/21 12:10:44;;;;;;;9.23;5.63;;;;;2.10;96560.00;;;;8285099;28;20208;-76
2023/01/21 12:14:53;;;;;;;5.10;3.70;;;;;2.20;96557.00;;;;8278880;28;20635;-76
2023/01/21 12:19:23;;;;;;;7.47;4.77;;;;;2.20;96564.00;;;;8280517;28;20204;-79
2023/01/21 12:23:45;;;;;;;6.10;4.13;;;;;2.20;96551.00;;;;8286661;28;20226;-82
2023/01/21 12:28:01;;;;;;;7.40;4.47;;;;;2.20;96543.00;;;;8279239;28;20207;-80
2023/01/21 12:32:11;;;;;;;6.00;3.60;;;;;2.20;96546.00;;;;8286919;28;20788;-81
2023/01/21 12:36:26;;;;;;;14.90;5.70;;;;;2.20;96544.00;;;;8279575;28;20231;-82
2023/01/21 12:40:35;;;;;;;7.10;4.13;;;;;2.30;96548.00;;;;8280238;28;20607;-81
2023/01/21 12:44:47;;;;;;;6.03;4.33;;;;;2.20;96548.00;;;;8299191;28;20258;-84
2023/01/21 12:48:57;;;;;;;4.70;3.40;;;;;2.30;96540.00;;;;8287455;28;20215;-82
2023/01/21 12:53:14;;;;;;;5.77;4.20;;;;;2.30;96535.00;;;;8279336;28;20638;-84
2023/01/21 12:57:27;;;;;;;5.03;3.93;;;;;2.30;96542.00;;;;8281192;28;20236;-84
2023/01/21 13:01:47;;;;;;;6.63;4.27;;;;;2.30;96546.00;;;;8282752;28;20199;-78
2023/01/21 13:06:00;;;;;;;8.37;4.63;;;;;2.20;96536.00;;;;8283025;28;20204;-81
2023/01/21 13:10:14;;;;;;;6.33;4.00;;;;;2.20;96540.00;;;;8286567;28;20567;-81
2023/01/21 13:14:26;;;;;;;7.00;3.43;;;;;2.20;96538.00;;;;8281634;28;20196;-80
2023/01/21 13:18:35;;;;;;;7.63;4.47;;;;;2.10;96539.00;;;;8280062;28;20216;-80
2023/01/21 13:22:45;;;;;;;7.80;4.00;;;;;2.00;96532.00;;;;8276912;28;20288;-78
2023/01/21 13:27:04;;;;;;;5.20;3.77;;;;;2.00;96535.00;;;;8280483;28;20282;-78
2023/01/21 13:31:15;;;;;;;9.43;4.80;;;;;2.00;96542.00;;;;8276199;28;20205;-79
2023/01/21 13:35:31;;;;;;;5.03;3.30;;;;;2.00;96538.00;;;;8274713;28;20679;-76
2023/01/21 13:39:48;;;;;;;11.50;5.27;;;;;1.90;96544.00;;;;8276591;28;20549;-76
2023/01/21 13:44:11;;;;;;;4.67;3.50;;;;;1.80;96553.00;;;;8275772;28;20296;-75
2023/01/21 13:48:42;;;;;;;5.20;3.23;;;;;1.80;96543.00;;;;8326346;28;20700;-76
2023/01/21 13:53:03;;;;;;;7.17;4.10;;;;;1.80;96560.00;;;;8315755;28;20641;-77
2023/01/21 13:57:29;;;;;;;7.73;4.60;;;;;1.80;96558.00;;;;8295128;28;20868;-76
2023/01/21 14:01:44;;;;;;;8.03;4.87;;;;;1.80;96559.00;;;;8315819;28;20211;-74
2023/01/21 14:05:53;;;;;;;9.23;5.43;;;;;1.80;96560.00;;;;8312721;28;20236;-76
2023/01/21 14:10:04;;;;;;;12.50;6.27;;;;;1.80;96556.00;;;;8309494;28;20677;-79
2023/01/21 14:14:51;;;;;;;12.10;5.47;;;;;1.80;96571.00;;;;8312467;28;20609;-76
2023/01/21 14:19:20;;;;;;;7.33;4.57;;;;;1.80;96567.00;;;;8313602;28;20213;-73
2023/01/21 14:23:49;;;;;;;9.97;5.70;;;;;1.90;96574.00;;;;8312074;28;20203;-74
2023/01/21 14:28:07;;;;;;;8.13;4.53;;;;;1.80;96573.00;;;;8319587;28;20202;-77
2023/01/21 14:32:16;;;;;;;9.30;5.40;;;;;1.80;96571.00;;;;8305535;28;20202;-76
2023/01/21 14:36:30;;;;;;;9.30;4.90;;;;;1.80;96572.00;;;;8314575;28;20260;-72
2023/01/21 14:40:45;;;;;;;7.60;5.07;;;;;1.80;96572.00;;;;8311631;28;20212;-76
2023/01/21 14:45:04;;;;;;;8.47;5.03;;;;;1.70;96574.00;;;;8307030;28;20268;-73
2023/01/21 14:49:10;;;;;;;9.67;5.60;;;;;1.60;96579.00;;;;8315537;28;20643;-75
2023/01/21 14:53:20;;;;;;;8.93;5.10;;;;;1.60;96580.00;;;;8308618;28;20262;-73
2023/01/21 14:57:31;;;;;;;9.87;5.43;;;;;1.60;96583.00;;;;8311979;28;20582;-73
2023/01/21 15:01:42;;;;;;;9.43;5.07;;;;;1.60;96594.00;;;;8298756;28;20298;-73
2023/01/21 15:05:52;;;;;;;12.13;5.87;;;;;1.50;96594.00;;;;8313870;28;20207;-72
2023/01/21 15:10:01;;;;;;;10.80;6.10;;;;;1.40;96593.00;;;;8311337;28;20880;-72
2023/01/21 15:14:12;;;;;;;10.63;5.83;;;;;1.40;96588.00;;;;8307154;28;20198;-72
2023/01/21 15:18:34;;;;;;;7.80;4.63;;;;;1.40;96585.00;;;;8311608;28;20774;-72
2023/01/21 15:23:05;;;;;;;7.87;4.37;;;;;1.30;96588.00;;;;8299011;28;20187;-72
2023/01/21 15:27:18;;;;;;;10.93;5.47;;;;;1.20;96597.00;;;;8309771;28;20262;-72
2023/01/21 15:31:42;;;;;;;9.20;5.20;;;;;1.20;96589.00;;;;8314854;28;20199;-71
2023/01/21 15:35:51;;;;;;;15.40;6.53;;;;;1.10;96592.00;;;;8317425;28;20284;-72
2023/01/21 15:40:03;;;;;;;11.37;6.27;;;;;1.10;96597.00;;;;8310242;28;20307;-71
2023/01/21 15:44:36;;;;;;;9.07;5.83;;;;;1.00;96605.00;;;;8304873;28;20201;-71
2023/01/21 15:49:13;;;;;;;7.83;4.90;;;;;0.90;96605.00;;;;8311469;28;20201;-70
2023/01/21 15:53:46;;;;;;;8.00;4.20;;;;;0.90;96602.00;;;;8303176;28;20223;-71
2023/01/21 15:58:09;;;;;;;8.67;4.53;;;;;0.90;96597.00;;;;8308634;28;20219;-70
2023/01/21 16:02:21;;;;;;;4.70;3.50;;;;;0.80;96608.00;;;;8299308;28;20656;-71
2023/01/21 16:11:10;;;;;;;11.37;6.37;;;;;0.80;96598.00;;;;8324513;28;20213;-72
2023/01/21 16:15:27;;;;;;;6.33;4.47;;;;;0.70;96608.00;;;;8325740;28;20297;-70
2023/01/21 16:19:39;;;;;;;9.80;6.40;;;;;0.80;96614.00;;;;8322396;28;20261;-72
2023/01/21 16:23:49;;;;;;;17.80;6.27;;;;;0.70;96608.00;;;;8320285;28;20203;-72
2023/01/21 16:27:55;;;;;;;11.97;7.43;;;;;0.70;96611.00;;;;8333044;28;20767;-71
2023/01/21 16:32:01;;;;;;;12.93;6.67;;;;;0.70;96604.00;;;;8316914;28;20252;-73
2023/01/21 16:36:07;;;;;;;11.47;6.23;;;;;0.60;96618.00;;;;8326205;28;20225;-71
2023/01/21 16:40:29;;;;;;;17.30;7.50;;;;;0.60;96602.00;;;;8319949;28;20198;-74
2023/01/21 16:44:33;;;;;;;11.23;6.83;;;;;0.60;96628.00;;;;8316177;28;20228;-74
2023/01/21 16:48:38;;;;;;;15.43;7.23;;;;;0.50;96620.00;;;;8312280;28;20554;-74
2023/01/21 16:52:47;;;;;;;13.73;7.73;;;;;0.50;96623.00;;;;8323986;28;20233;-75
2023/01/21 16:56:57;;;;;;;13.60;7.40;;;;;0.50;96622.00;;;;8323102;28;20233;-74
2023/01/21 17:01:10;;;;;;;11.40;6.07;;;;;0.40;96624.00;;;;8323080;28;20189;-74
2023/01/21 17:05:16;;;;;;;15.77;8.30;;;;;0.40;96622.00;;;;8314793;28;20239;-75
2023/01/21 17:09:26;;;;;;;14.40;8.47;;;;;0.40;96626.00;;;;8315436;28;20207;-77
2023/01/21 17:13:31;;;;;;;16.53;8.30;;;;;0.30;96628.00;;;;8319341;28;20193;-76
2023/01/21 17:17:36;;;;;;;14.20;8.00;;;;;0.30;96628.00;;;;8316619;28;20229;-75
2023/01/21 17:21:45;;;;;;;14.57;7.60;;;;;0.30;96618.00;;;;8318271;28;20194;-76
2023/01/21 17:25:55;;;;;;;15.27;8.43;;;;;0.30;96629.00;;;;8311272;28;20239;-76
2023/01/21 17:30:38;;;;;;;14.57;7.77;;;;;0.20;96632.00;;;;8316168;28;20308;-76
2023/01/21 17:35:05;;;;;;;13.13;6.43;;;;;0.20;96629.00;;;;8329252;28;20746;-76
2023/01/21 17:39:11;;;;;;;12.90;6.30;;;;;0.20;96631.00;;;;8331815;28;20802;-76
2023/01/21 17:43:22;;;;;;;14.20;7.00;;;;;0.20;96646.00;;;;8327882;28;20198;-76
2023/01/21 17:47:30;;;;;;;13.40;7.77;;;;;0.20;96644.00;;;;8314277;28;20263;-76
2023/01/21 17:51:39;;;;;;;13.00;7.40;;;;;0.30;96645.00;;;;8311129;28;20229;-76
2023/01/21 17:55:56;;;;;;;15.27;8.33;;;;;0.30;96650.00;;;;8317007;28;20276;-76
2023/01/21 17:59:59;;;;;;;11.73;7.20;;;;;0.30;96658.00;;;;8318488;28;20194;-76
2023/01/21 18:04:14;;;;;;;14.33;8.27;;;;;0.30;96659.00;;;;8320033;28;20214;-75
2023/01/21 18:08:41;;;;;;;18.00;8.90;;;;;0.30;96654.00;;;;8316130;28;20606;-76
2023/01/21 18:12:49;;;;;;;15.23;7.77;;;;;0.30;96665.00;;;;8311592;28;20213;-76
2023/01/21 18:16:55;;;;;;;15.03;7.63;;;;;0.30;96661.00;;;;8311996;28;20221;-75
2023/01/21 18:21:01;;;;;;;16.97;7.77;;;;;0.30;96655.00;;;;8312569;28;20214;-76
2023/01/21 18:25:08;;;;;;;18.73;8.93;;;;;0.30;96650.00;;;;8310047;28;20206;-76
2023/01/21 18:29:16;;;;;;;19.43;8.40;;;;;0.30;96647.00;;;;8314953;28;20203;-75
2023/01/21 18:33:19;;;;;;;14.57;7.97;;;;;0.30;96648.00;;;;8314659;28;20198;-74
2023/01/21 18:37:29;;;;;;;14.53;7.33;;;;;0.30;96645.00;;;;8316572;28;20226;-73
2023/01/21 18:41:34;;;;;;;15.20;8.20;;;;;0.30;96646.00;;;;8305305;28;20290;-74
2023/01/21 18:45:41;;;;;;;14.77;7.83;;;;;0.30;96642.00;;;;8307847;28;20256;-73
2023/01/21 18:49:50;;;;;;;16.23;8.57;;;;;0.40;96646.00;;;;8315712;28;20651;-73
2023/01/21 18:53:56;;;;;;;14.83;8.07;;;;;0.40;96642.00;;;;8311521;28;20916;-74
2023/01/21 18:58:01;;;;;;;15.70;8.90;;;;;0.40;96647.00;;;;8307565;28;20221;-74
2023/01/21 19:02:13;;;;;;;16.90;8.57;;;;;0.40;96632.00;;;;8305305;28;20192;-75
2023/01/21 19:06:23;;;;;;;12.30;7.47;;;;;0.40;96643.00;;;;8306516;28;20198;-75
2023/01/21 19:10:30;;;;;;;16.00;8.37;;;;;0.40;96635.00;;;;8310089;28;20269;-76
2023/01/21 19:14:34;;;;;;;17.73;9.03;;;;;0.40;96642.00;;;;8308775;28;20261;-74
2023/01/21 19:18:49;;;;;;;14.13;7.90;;;;;0.40;96645.00;;;;8311354;28;20256;-75
2023/01/21 19:22:53;;;;;;;14.77;8.63;;;;;0.40;96636.00;;;;8314402;28;20220;-73
2023/01/21 19:26:59;;;;;;;15.17;8.27;;;;;0.40;96636.00;;;;8311485;28;20620;-74
2023/01/21 19:31:04;;;;;;;14.60;7.77;;;;;0.40;96637.00;;;;8315603;28;20201;-73
2023/01/21 19:35:15;;;;;;;13.97;7.20;;;;;0.40;96636.00;;;;8313710;28;20564;-74
2023/01/21 19:39:24;;;;;;;15.70;8.03;;;;;0.50;96640.00;;;;8303115;28;20221;-73
2023/01/21 19:43:29;;;;;;;18.23;8.30;;;;;0.50;96635.00;;;;8298589;28;20209;-74
2023/01/21 19:47:37;;;;;;;15.10;8.10;;;;;0.50;96643.00;;;;8315636;28;20281;-73
2023/01/21 19:51:41;;;;;;;13.23;7.23;;;;;0.50;96647.00;;;;8315507;28;20230;-74
2023/01/21 19:55:45;;;;;;;15.90;7.63;;;;;0.50;96647.00;;;;8307532;28;20217;-73
2023/01/21 19:59:53;;;;;;;12.43;7.20;;;;;0.50;96642.00;;;;8315212;28;20879;-74
2023/01/21 20:03:56;;;;;;;14.37;6.70;;;;;0.50;96648.00;;;;8307397;28;20198;-74
2023/01/21 20:08:04;;;;;;;13.50;7.20;;;;;0.50;96651.00;;;;8315114;28;20225;-73
2023/01/21 20:12:09;;;;;;;13.50;6.87;;;;;0.50;96645.00;;;;8310747;28;20216;-73
2023/01/21 20:16:15;;;;;;;16.87;8.00;;;;;0.60;96646.00;;;;8303991;28;20231;-73
2023/01/21 20:20:21;;;;;;;13.73;8.07;;;;;0.60;96649.00;;;;8306465;28;20224;-72
2023/01/21 20:24:28;;;;;;;14.23;7.10;;;;;0.60;96647.00;;;;8308388;28;20207;-72
2023/01/21 20:28:38;;;;;;;14.67;7.70;;;;;0.60;96656.00;;;;8320322;28;20752;-75
2023/01/21 20:32:42;;;;;;;12.77;7.33;;;;;0.70;96650.00;;;;8312462;28;21057;-74
2023/01/21 20:36:47;;;;;;;13.83;7.60;;;;;0.70;96653.00;;;;8310841;28;20356;-76
2023/01/21 20:40:52;;;;;;;13.73;7.60;;;;;0.70;96654.00;;;;8319238;28;20229;-75
2023/01/21 20:44:54;;;;;;;18.17;8.83;;;;;0.70;96667.00;;;;8321149;28;20741;-72
2023/01/21 20:48:58;;;;;;;14.63;7.90;;;;;0.70;96669.00;;;;8315844;28;20308;-72
2023/01/21 20:53:10;;;;;;;16.80;8.30;;;;;0.80;96659.00;;;;8315663;28;20230;-73